createdAt,value
2019-01-18T00:00:48.125Z,85.96
2019-01-18T00:03:19.224Z,86.17
2019-01-18T00:05:48.805Z,86.34
2019-01-18T00:08:18.440Z,86.13
2019-01-18T00:10:47.876Z,85.65
2019-01-18T00:13:18.969Z,85.12
2019-01-18T00:15:48.759Z,85.89
2019-01-18T00:18:18.247Z,85.90
2019-01-18T00:20:47.781Z,85.21
2019-01-18T00:23:17.262Z,85.28
2019-01-18T00:25:46.975Z,85.01
2019-01-18T00:28:16.447Z,84.94
2019-01-18T00:30:45.932Z,84.62
2019-01-18T00:33:15.386Z,84.51
2019-01-18T00:35:45.405Z,84.04
2019-01-18T00:38:15.115Z,84.46
2019-01-18T00:40:44.568Z,84.99
2019-01-18T00:43:14.030Z,84.07
2019-01-18T00:45:43.494Z,83.80
2019-01-18T00:48:12.956Z,84.87
2019-01-18T00:50:42.396Z,84.10
2019-01-18T00:53:11.929Z,83.73
2019-01-18T00:55:41.765Z,84.33
2019-01-18T00:58:13.214Z,84.51
2019-01-18T01:00:42.801Z,84.19
2019-01-18T01:03:12.727Z,84.24
2019-01-18T01:05:42.276Z,84.60
2019-01-18T01:08:13.415Z,84.16
2019-01-18T01:10:44.747Z,84.83
2019-01-18T01:13:18.006Z,84.89
2019-01-18T01:15:47.504Z,85.16
2019-01-18T01:18:17.063Z,84.10
2019-01-18T01:20:46.523Z,85.10
2019-01-18T01:23:16.118Z,84.87
2019-01-18T01:25:45.873Z,84.98
2019-01-18T01:28:15.335Z,84.11
2019-01-18T01:30:45.408Z,84.82
2019-01-18T01:33:14.874Z,85.01
2019-01-18T01:35:44.609Z,85.32
2019-01-18T01:38:15.278Z,84.23
2019-01-18T01:40:44.882Z,84.79
2019-01-18T01:43:14.370Z,85.47
2019-01-18T01:45:43.825Z,85.35
2019-01-18T01:48:13.286Z,85.26
2019-01-18T01:50:42.736Z,85.93
2019-01-18T01:53:12.586Z,85.41
2019-01-18T01:55:42.317Z,86.07
2019-01-18T01:58:11.857Z,85.65
2019-01-18T02:00:41.371Z,85.12
2019-01-18T02:03:10.896Z,85.83
2019-01-18T02:05:40.382Z,85.75
2019-01-18T02:08:09.837Z,86.66
2019-01-18T02:10:40.346Z,87.00
2019-01-18T02:13:11.434Z,87.63
2019-01-18T02:15:40.875Z,87.12
2019-01-18T02:18:10.737Z,88.22
2019-01-18T02:20:40.204Z,87.52
2019-01-18T02:23:09.663Z,87.00
2019-01-18T02:25:39.747Z,87.26
2019-01-18T02:28:09.241Z,86.94
2019-01-18T02:30:38.649Z,86.59
2019-01-18T02:33:08.118Z,86.27
2019-01-18T02:35:37.571Z,86.01
2019-01-18T02:38:08.026Z,85.72
2019-01-18T02:40:37.549Z,85.51
2019-01-18T02:43:06.996Z,85.27
2019-01-18T02:45:36.447Z,85.77
2019-01-18T02:48:05.974Z,85.40
2019-01-18T02:50:35.678Z,85.70
2019-01-18T02:53:24.798Z,86.22
2019-01-18T02:55:54.248Z,84.95
2019-01-18T02:58:23.708Z,85.55
2019-01-18T03:00:53.180Z,85.30
2019-01-18T03:03:22.639Z,85.08
2019-01-18T03:05:52.425Z,84.78
2019-01-18T03:08:21.886Z,84.97
2019-01-18T03:10:51.343Z,85.06
2019-01-18T03:13:20.804Z,85.11
2019-01-18T03:15:50.299Z,85.61
2019-01-18T03:18:19.794Z,86.14
2019-01-18T03:20:49.256Z,86.48
2019-01-18T03:23:18.693Z,86.64
2019-01-18T03:25:48.171Z,87.24
2019-01-18T03:28:17.681Z,87.26
2019-01-18T03:30:47.231Z,87.73
2019-01-18T03:33:16.689Z,87.59
2019-01-18T03:35:47.251Z,87.97
2019-01-18T03:38:16.700Z,88.03
2019-01-18T03:40:46.433Z,87.92
2019-01-18T03:43:15.891Z,87.28
2019-01-18T03:45:45.773Z,87.55
2019-01-18T03:48:15.307Z,87.31
2019-01-18T03:50:44.756Z,87.10
2019-01-18T03:53:15.599Z,87.94
2019-01-18T03:55:45.040Z,87.70
2019-01-18T03:58:14.814Z,87.72
2019-01-18T04:00:44.281Z,88.20
2019-01-18T04:03:13.770Z,88.24
2019-01-18T04:05:43.676Z,88.35
2019-01-18T04:08:13.114Z,88.77
2019-01-18T04:10:43.145Z,88.44
2019-01-18T04:13:12.840Z,88.22
2019-01-18T04:15:42.547Z,88.04
2019-01-18T04:18:12.079Z,87.58
2019-01-18T04:20:41.568Z,87.43
2019-01-18T04:23:12.343Z,87.21
2019-01-18T04:25:41.816Z,87.80
2019-01-18T04:28:11.263Z,87.99
2019-01-18T04:30:40.719Z,88.18
2019-01-18T04:33:10.201Z,88.23
2019-01-18T04:35:39.625Z,87.34
2019-01-18T04:38:09.111Z,87.79
2019-01-18T04:40:38.544Z,87.46
2019-01-18T04:43:08.610Z,87.50
2019-01-18T04:45:38.053Z,87.96
2019-01-18T04:48:07.814Z,89.77
2019-01-18T04:50:37.292Z,89.80
2019-01-18T04:53:06.726Z,89.80
2019-01-18T04:55:37.639Z,90.27
2019-01-18T04:58:07.078Z,90.44
2019-01-18T05:00:40.903Z,90.71
2019-01-18T05:03:08.457Z,90.87
2019-01-18T05:05:37.897Z,93.17
2019-01-18T05:08:07.339Z,91.93
2019-01-18T05:10:37.060Z,91.77
2019-01-18T05:13:06.513Z,92.29
2019-01-18T05:15:35.963Z,93.21
2019-01-18T05:18:05.692Z,92.71
2019-01-18T05:20:35.212Z,93.24
2019-01-18T05:23:04.830Z,93.61
2019-01-18T05:25:34.209Z,93.83
2019-01-18T05:28:05.282Z,94.05
2019-01-18T05:30:34.753Z,94.23
2019-01-18T05:33:04.562Z,94.47
2019-01-18T05:35:34.026Z,93.82
2019-01-18T05:38:03.499Z,93.37
2019-01-18T05:40:32.927Z,92.80
2019-01-18T05:43:02.395Z,91.83
2019-01-18T05:45:31.832Z,91.90
2019-01-18T05:48:01.271Z,91.47
2019-01-18T05:50:31.095Z,91.61
2019-01-18T05:53:02.477Z,91.80
2019-01-18T05:55:31.923Z,90.66
2019-01-18T05:58:01.399Z,98.38
2019-01-18T06:00:40.603Z,92.30
2019-01-18T06:03:11.419Z,89.36
2019-01-18T06:05:42.287Z,88.89
2019-01-18T06:08:13.372Z,87.46
2019-01-18T06:10:42.861Z,87.86
2019-01-18T06:13:12.303Z,89.26
2019-01-18T06:15:41.753Z,91.94
2019-01-18T06:18:11.555Z,91.56
2019-01-18T06:20:40.999Z,92.75
2019-01-18T06:23:10.710Z,93.43
2019-01-18T06:25:40.170Z,93.85
2019-01-18T06:28:10.070Z,93.97
2019-01-18T06:30:39.571Z,93.96
2019-01-18T06:33:09.048Z,94.07
2019-01-18T06:35:38.566Z,94.11
2019-01-18T06:38:08.019Z,93.97
2019-01-18T06:40:37.917Z,94.19
2019-01-18T06:43:07.353Z,93.31
2019-01-18T06:45:36.840Z,93.27
2019-01-18T06:48:06.846Z,93.28
2019-01-18T06:50:36.679Z,93.20
2019-01-18T06:53:06.114Z,93.35
2019-01-18T06:55:35.566Z,93.43
2019-01-18T06:58:05.503Z,93.56
2019-01-18T07:00:34.961Z,93.30
2019-01-18T07:03:04.740Z,94.30
2019-01-18T07:05:34.203Z,93.77
2019-01-18T07:08:03.833Z,94.01
2019-01-18T07:10:33.287Z,94.47
2019-01-18T07:13:03.127Z,93.95
2019-01-18T07:15:32.558Z,94.06
2019-01-18T07:18:02.342Z,93.74
2019-01-18T07:20:31.846Z,93.10
2019-01-18T07:23:01.658Z,92.53
2019-01-18T07:25:31.480Z,92.02
2019-01-18T07:28:01.308Z,90.89
2019-01-18T07:30:36.127Z,90.77
2019-01-18T07:33:07.050Z,90.52
2019-01-18T07:35:36.491Z,90.42
2019-01-18T07:38:06.985Z,89.90
2019-01-18T07:40:36.671Z,90.09
2019-01-18T07:43:06.913Z,90.03
2019-01-18T07:45:36.636Z,90.15
2019-01-18T07:48:06.089Z,89.46
2019-01-18T07:50:35.541Z,89.35
2019-01-18T07:53:05.609Z,88.81
2019-01-18T07:55:35.397Z,87.93
2019-01-18T07:58:05.211Z,87.83
2019-01-18T08:00:35.000Z,88.06
2019-01-18T08:03:04.440Z,88.02
2019-01-18T08:05:33.901Z,87.12
2019-01-18T08:08:03.822Z,87.70
2019-01-18T08:10:33.345Z,86.23
2019-01-18T08:13:03.856Z,86.47
2019-01-18T08:15:33.547Z,86.43
2019-01-18T08:18:03.281Z,85.50
2019-01-18T08:20:32.720Z,85.69
2019-01-18T08:23:02.240Z,84.80
2019-01-18T08:25:31.760Z,84.25
2019-01-18T08:28:01.347Z,84.95
2019-01-18T08:30:31.275Z,85.69
2019-01-18T08:33:00.775Z,86.92
2019-01-18T08:35:30.495Z,87.26
2019-01-18T08:38:00.109Z,86.65
2019-01-18T08:40:31.907Z,86.40
2019-01-18T08:43:01.344Z,85.63
2019-01-18T08:45:39.360Z,86.11
2019-01-18T08:48:09.179Z,85.18
2019-01-18T08:50:39.260Z,85.10
2019-01-18T08:53:09.084Z,83.98
2019-01-18T08:55:38.540Z,85.15
2019-01-18T08:58:07.977Z,86.48
2019-01-18T09:00:37.422Z,86.45
2019-01-18T09:03:07.326Z,88.18
2019-01-18T09:05:36.769Z,87.64
2019-01-18T09:08:06.389Z,86.77
2019-01-18T09:10:36.979Z,85.98
2019-01-18T09:13:06.443Z,84.46
2019-01-18T09:15:35.890Z,82.66
2019-01-18T09:18:05.544Z,79.80
2019-01-18T09:20:35.034Z,78.71
2019-01-18T09:23:05.123Z,77.70
2019-01-18T09:25:34.741Z,76.61
2019-01-18T09:28:04.758Z,76.42
2019-01-18T09:30:34.861Z,77.72
2019-01-18T09:33:05.378Z,78.42
2019-01-18T09:35:35.306Z,79.43
2019-01-18T09:38:06.700Z,79.80
2019-01-18T09:40:36.261Z,79.44
2019-01-18T09:43:05.722Z,80.71
2019-01-18T09:45:35.180Z,80.36
2019-01-18T09:48:06.063Z,79.99
2019-01-18T09:50:35.813Z,80.74
2019-01-18T09:53:07.106Z,79.57
2019-01-18T09:55:36.562Z,77.49
2019-01-18T09:58:06.129Z,76.99
2019-01-18T10:00:37.518Z,73.26
2019-01-18T10:03:06.972Z,73.55
2019-01-18T10:05:36.414Z,70.86
2019-01-18T10:08:06.074Z,72.60
2019-01-18T10:10:35.531Z,72.81
2019-01-18T10:13:05.344Z,71.45
2019-01-18T10:15:37.470Z,72.80
2019-01-18T10:18:07.108Z,75.73
2019-01-18T10:20:36.833Z,76.27
2019-01-18T10:23:06.300Z,77.73
2019-01-18T10:25:36.040Z,76.18
2019-01-18T10:28:05.791Z,75.91
2019-01-18T10:30:35.244Z,77.47
2019-01-18T10:33:04.712Z,76.44
2019-01-18T10:35:34.504Z,75.43
2019-01-18T10:38:05.412Z,76.44
2019-01-18T10:40:35.151Z,77.21
2019-01-18T10:43:04.861Z,76.67
2019-01-18T10:45:34.674Z,75.97
2019-01-18T10:48:04.152Z,74.93
2019-01-18T10:50:33.651Z,74.68
2019-01-18T10:53:03.106Z,75.27
2019-01-18T10:55:32.547Z,73.94
2019-01-18T10:58:02.014Z,72.63
2019-01-18T11:00:33.527Z,71.90
2019-01-18T11:03:03.003Z,70.15
2019-01-18T11:05:32.447Z,71.65
2019-01-18T11:08:01.919Z,69.67
2019-01-18T11:10:31.356Z,72.33
2019-01-18T11:13:01.164Z,72.62
2019-01-18T11:15:30.599Z,72.10
2019-01-18T11:18:00.125Z,72.33
2019-01-18T11:20:39.006Z,68.71
2019-01-18T11:23:08.754Z,69.83
2019-01-18T11:25:38.205Z,67.84
2019-01-18T11:28:08.035Z,69.19
2019-01-18T11:30:37.557Z,66.42
2019-01-18T11:33:07.111Z,66.38
2019-01-18T11:35:36.829Z,67.23
2019-01-18T11:38:07.700Z,66.83
2019-01-18T11:40:37.148Z,66.96
2019-01-18T11:43:06.911Z,70.35
2019-01-18T11:45:36.352Z,71.15
2019-01-18T11:48:06.331Z,69.73
2019-01-18T11:50:36.054Z,69.48
2019-01-18T11:53:05.878Z,68.65
2019-01-18T11:55:36.969Z,69.94
2019-01-18T11:58:06.815Z,69.74
2019-01-18T12:00:37.941Z,69.74
2019-01-18T12:03:07.889Z,71.09
2019-01-18T12:05:37.694Z,69.92
2019-01-18T12:08:07.152Z,68.77
2019-01-18T12:10:36.607Z,69.40
2019-01-18T12:13:06.063Z,68.79
2019-01-18T12:15:35.506Z,68.45
2019-01-18T12:18:05.034Z,66.77
2019-01-18T12:20:35.336Z,68.97
2019-01-18T12:23:05.044Z,69.39
2019-01-18T12:25:34.531Z,69.34
2019-01-18T12:28:04.055Z,67.66
2019-01-18T12:30:34.017Z,68.17
2019-01-18T12:33:03.536Z,70.73
2019-01-18T12:35:33.044Z,67.69
2019-01-18T12:38:02.521Z,66.80
2019-01-18T12:40:32.313Z,68.17
2019-01-18T12:43:01.783Z,68.02
2019-01-18T12:45:31.437Z,68.82
2019-01-18T12:48:00.900Z,68.89
2019-01-18T12:50:32.398Z,69.77
2019-01-18T12:53:02.189Z,68.28
2019-01-18T12:55:31.639Z,69.06
2019-01-18T12:58:01.105Z,68.12
2019-01-18T13:00:31.328Z,67.99
2019-01-18T13:03:01.138Z,67.42
2019-01-18T13:05:36.662Z,68.12
2019-01-18T13:08:06.141Z,67.43
2019-01-18T13:10:35.598Z,67.98
2019-01-18T13:13:05.515Z,66.40
2019-01-18T13:15:40.699Z,63.74
2019-01-18T13:18:10.158Z,59.44
2019-01-18T13:20:39.972Z,57.82
2019-01-18T13:23:09.430Z,58.63
2019-01-18T13:25:38.901Z,55.35
2019-01-18T13:28:08.358Z,54.56
2019-01-18T13:30:37.852Z,53.67
2019-01-18T13:33:07.327Z,53.54
2019-01-18T13:35:36.773Z,53.50
2019-01-18T13:38:06.306Z,52.77
2019-01-18T13:40:35.775Z,54.68
2019-01-18T13:43:05.260Z,56.02
2019-01-18T13:45:34.704Z,58.71
2019-01-18T13:48:04.358Z,59.30
2019-01-18T13:50:33.809Z,62.35
2019-01-18T13:53:03.834Z,63.15
2019-01-18T13:55:33.584Z,64.53
2019-01-18T13:58:03.069Z,63.95
2019-01-18T14:00:32.520Z,60.07
2019-01-18T14:03:02.000Z,58.02
2019-01-18T14:05:31.441Z,56.03
2019-01-18T14:08:00.959Z,56.57
2019-01-18T14:10:36.647Z,58.19
2019-01-18T14:13:06.120Z,57.62
2019-01-18T14:15:35.582Z,56.91
2019-01-18T14:18:05.098Z,58.00
2019-01-18T14:20:34.564Z,57.82
2019-01-18T14:23:04.018Z,57.13
2019-01-18T14:25:33.750Z,57.05
2019-01-18T14:28:03.541Z,56.22
2019-01-18T14:30:35.735Z,58.91
2019-01-18T14:33:04.216Z,60.40
2019-01-18T14:35:33.976Z,60.74
2019-01-18T14:38:03.420Z,61.37
2019-01-18T14:40:32.879Z,59.59
2019-01-18T14:43:02.709Z,60.55
2019-01-18T14:45:35.472Z,58.99
2019-01-18T14:48:05.352Z,58.43
2019-01-18T14:50:34.939Z,59.13
2019-01-18T14:53:04.757Z,58.67
2019-01-18T14:55:35.152Z,60.61
2019-01-18T14:58:06.962Z,60.39
2019-01-18T15:00:38.105Z,59.78
2019-01-18T15:03:07.982Z,61.14
2019-01-18T15:05:37.702Z,61.64
2019-01-18T15:08:08.591Z,62.95
2019-01-18T15:10:38.161Z,63.15
2019-01-18T15:13:10.782Z,63.94
2019-01-18T15:15:40.279Z,65.02
2019-01-18T15:18:10.007Z,64.76
2019-01-18T15:20:39.466Z,65.24
2019-01-18T15:23:09.185Z,67.07
2019-01-18T15:25:38.652Z,68.30
2019-01-18T15:28:08.113Z,67.70
2019-01-18T15:30:37.644Z,68.92
2019-01-18T15:33:09.434Z,68.90
2019-01-18T15:35:38.314Z,69.50
2019-01-18T15:38:08.223Z,71.73
2019-01-18T15:40:41.620Z,73.43
2019-01-18T15:43:12.860Z,72.85
2019-01-18T15:45:42.660Z,72.46
2019-01-18T15:48:12.139Z,72.81
2019-01-18T15:50:41.625Z,73.33
2019-01-18T15:53:11.069Z,73.33
2019-01-18T15:55:40.543Z,74.07
2019-01-18T15:58:09.990Z,75.95
2019-01-18T16:00:42.255Z,74.82
2019-01-18T16:03:15.885Z,76.47
2019-01-18T16:05:43.121Z,76.84
2019-01-18T16:08:13.127Z,76.61
2019-01-18T16:10:42.628Z,75.93
2019-01-18T16:13:12.173Z,76.41
2019-01-18T16:15:54.144Z,76.49
2019-01-18T16:18:24.731Z,76.58
2019-01-18T16:20:54.378Z,76.62
2019-01-18T16:23:23.972Z,78.30
2019-01-18T16:25:53.406Z,79.68
2019-01-18T16:28:23.234Z,79.72
2019-01-18T16:30:52.760Z,81.49
2019-01-18T16:33:23.570Z,82.08
2019-01-18T16:35:53.308Z,83.20
2019-01-18T16:38:23.092Z,82.93
2019-01-18T16:40:52.635Z,83.93
2019-01-18T16:43:25.585Z,84.98
2019-01-18T16:45:55.054Z,84.99
2019-01-18T16:48:24.510Z,84.96
2019-01-18T16:50:53.986Z,85.93
2019-01-18T16:53:23.450Z,85.67
2019-01-18T16:55:52.931Z,86.59
2019-01-18T16:58:22.379Z,86.54
2019-01-18T17:00:54.954Z,85.88
2019-01-18T17:03:30.298Z,85.83
2019-01-18T17:05:55.620Z,86.09
2019-01-18T17:08:25.072Z,87.96
2019-01-18T17:10:54.855Z,88.45
2019-01-18T17:13:24.357Z,89.05
2019-01-18T17:15:53.835Z,88.78
2019-01-18T17:18:24.628Z,89.43
2019-01-18T17:20:54.098Z,89.48
2019-01-18T17:23:23.574Z,89.93
2019-01-18T17:25:53.039Z,90.15
2019-01-18T17:28:22.567Z,88.24
2019-01-18T17:30:52.111Z,87.49
2019-01-18T17:33:21.576Z,88.31
2019-01-18T17:35:57.500Z,89.68
2019-01-18T17:38:57.291Z,88.33
2019-01-18T17:41:44.784Z,89.38
2019-01-18T17:44:20.451Z,89.98
2019-01-18T17:47:19.984Z,88.43
2019-01-18T17:49:55.556Z,89.45
2019-01-18T17:52:49.858Z,89.52
2019-01-18T17:55:34.557Z,88.11
2019-01-18T17:58:25.490Z,87.88
2019-01-18T18:00:58.499Z,85.67
2019-01-18T18:03:52.247Z,84.72
2019-01-18T18:06:46.040Z,84.85
2019-01-18T18:09:18.681Z,83.75
2019-01-18T18:11:56.656Z,83.55
2019-01-18T18:14:32.434Z,83.05
2019-01-18T18:17:23.124Z,82.81
2019-01-18T18:20:16.399Z,82.53
2019-01-18T18:22:54.515Z,82.16
2019-01-18T18:25:39.059Z,81.69
2019-01-18T18:28:23.939Z,81.42
2019-01-18T18:30:59.522Z,81.91
2019-01-18T18:33:54.873Z,82.34
2019-01-18T18:36:27.502Z,82.07
2019-01-18T18:39:14.705Z,81.41
2019-01-18T18:41:50.035Z,81.88
2019-01-18T18:44:40.323Z,82.17
2019-01-18T18:47:30.863Z,83.07
2019-01-18T18:50:20.898Z,82.15
2019-01-18T18:53:16.379Z,81.74
2019-01-18T18:55:58.159Z,81.68
2019-01-18T18:58:39.222Z,81.78
2019-01-18T19:01:35.980Z,82.52
2019-01-18T19:04:14.267Z,82.38
2019-01-18T19:06:46.919Z,82.25
2019-01-18T19:09:28.365Z,82.78
2019-01-18T19:12:09.564Z,82.42
2019-01-18T19:14:53.362Z,84.49
2019-01-18T19:17:28.854Z,82.30
2019-01-18T19:20:07.443Z,82.91
2019-01-18T19:22:52.021Z,83.15
2019-01-18T19:25:30.381Z,82.53
2019-01-18T19:28:33.166Z,83.56
2019-01-18T19:31:23.843Z,85.58
2019-01-18T19:34:04.364Z,86.55
2019-01-18T19:36:45.611Z,84.52
2019-01-18T19:39:42.537Z,83.82
2019-01-18T19:42:27.291Z,85.54
2019-01-18T19:45:02.746Z,85.35
2019-01-18T19:47:35.386Z,86.39
2019-01-18T19:50:10.712Z,87.57
2019-01-18T19:52:46.497Z,88.07
2019-01-18T19:55:31.407Z,88.30
2019-01-18T19:58:20.639Z,86.54
2019-01-18T20:01:09.368Z,85.57
2019-01-18T20:04:03.120Z,83.35
2019-01-18T20:06:52.351Z,82.74
2019-01-18T20:09:37.453Z,82.60
2019-01-18T20:12:21.914Z,82.24
2019-01-18T20:15:15.670Z,82.85
2019-01-18T20:17:48.483Z,82.57
2019-01-18T20:20:26.612Z,82.79
2019-01-18T20:23:05.570Z,81.75
2019-01-18T20:25:43.983Z,81.19
2019-01-18T20:28:24.860Z,81.62
2019-01-18T20:31:00.607Z,83.81
2019-01-18T20:34:00.547Z,85.16
2019-01-18T20:36:39.020Z,84.25
2019-01-18T20:39:33.183Z,83.01
2019-01-18T20:42:11.912Z,83.53
2019-01-18T20:45:01.026Z,86.76
2019-01-18T20:47:58.097Z,87.84
2019-01-18T20:50:30.788Z,88.87
2019-01-18T20:53:20.186Z,88.12
2019-01-18T20:56:05.162Z,88.25
2019-01-18T20:58:44.059Z,90.09
2019-01-18T21:01:36.370Z,89.77
2019-01-18T21:04:36.425Z,87.53
2019-01-18T21:07:17.176Z,85.39
2019-01-18T21:09:58.423Z,85.94
2019-01-18T21:12:43.217Z,86.20
2019-01-18T21:15:18.563Z,89.08
2019-01-18T21:18:10.804Z,89.13
2019-01-18T21:21:01.478Z,90.17
2019-01-18T21:23:34.290Z,89.72
2019-01-18T21:26:12.782Z,90.35
2019-01-18T21:29:00.816Z,90.61
2019-01-18T21:31:51.348Z,90.47
2019-01-18T21:34:33.113Z,89.91
2019-01-18T21:37:09.169Z,91.66
2019-01-18T21:39:53.818Z,92.00
2019-01-18T21:42:47.527Z,91.85
2019-01-18T21:45:20.155Z,91.97
2019-01-18T21:48:22.126Z,91.13
2019-01-18T21:51:06.923Z,91.57
2019-01-18T21:53:42.607Z,91.23
2019-01-18T21:56:31.798Z,90.55
2019-01-18T21:59:07.379Z,90.58
2019-01-18T22:01:45.879Z,90.98
2019-01-18T22:04:27.571Z,91.46
2019-01-18T22:07:22.239Z,91.22
2019-01-18T22:10:00.620Z,91.16
2019-01-18T22:12:55.818Z,90.79
2019-01-18T22:15:31.080Z,91.40
2019-01-18T22:18:21.810Z,90.93
2019-01-18T22:21:15.310Z,88.50
2019-01-18T22:23:50.398Z,86.80
2019-01-18T22:26:31.836Z,87.31
2019-01-18T22:29:31.466Z,87.81
2019-01-18T22:32:51.824Z,89.52
2019-01-18T22:35:29.669Z,90.09
2019-01-18T22:38:14.421Z,90.46
2019-01-18T22:40:55.758Z,91.25
2019-01-18T22:43:31.588Z,91.24
2019-01-18T22:46:27.100Z,90.94
2019-01-18T22:49:05.730Z,89.33
2019-01-18T22:51:50.442Z,91.87
2019-01-18T22:54:34.437Z,91.77
2019-01-18T22:57:07.057Z,92.44
2019-01-18T22:59:42.468Z,92.50
2019-01-18T23:02:19.350Z,92.13
2019-01-18T23:04:55.650Z,91.17
2019-01-18T23:07:31.514Z,90.64
2019-01-18T23:10:15.860Z,91.01
2019-01-18T23:12:57.604Z,90.79
2019-01-18T23:15:55.954Z,90.70
2019-01-18T23:18:31.439Z,91.84
2019-01-18T23:21:29.819Z,91.82
2019-01-18T23:24:08.233Z,92.03
2019-01-18T23:26:58.209Z,91.83
2019-01-18T23:29:39.970Z,91.63
2019-01-18T23:32:30.308Z,91.28
2019-01-18T23:35:20.964Z,91.31
2019-01-18T23:38:10.644Z,91.42
2019-01-18T23:40:48.922Z,91.73
2019-01-18T23:43:44.199Z,91.32
2019-01-18T23:46:25.237Z,92.59
2019-01-18T23:49:13.062Z,92.44
2019-01-18T23:51:45.700Z,92.34
2019-01-18T23:54:51.615Z,91.51
2019-01-18T23:57:39.653Z,91.53
